Time;durP1;ratioP1;P1;durP2;ratioP2;P2;SDS_P1;SDS_P2;PMS_P1;PMS_P2;Temp;Humidity;BMP_temperature;BMP_pressure;BME280_temperature;BME280_humidity;BME280_pressure;Samples;Min_cycle;Max_cycle;Signal;HPM_P1;HPM_P2
2021/08/12 00:00:44;;;;;;;6.10;5.00;;;17.60;99.90;;;;;;5021904;28;20483;-70
2021/08/12 00:03:31;;;;;;;6.23;4.30;;;17.60;99.90;;;;;;5014248;28;20449;-71
2021/08/12 00:06:17;;;;;;;5.70;4.47;;;17.50;99.90;;;;;;5023723;28;20458;-71
2021/08/12 00:09:03;;;;;;;7.00;4.50;;;17.50;99.90;;;;;;5009729;28;20486;-70
2021/08/12 00:11:48;;;;;;;10.43;4.80;;;17.50;99.90;;;;;;5011422;28;20454;-70
2021/08/12 00:14:34;;;;;;;7.87;4.50;;;17.50;99.90;;;;;;5011245;28;20453;-71
2021/08/12 00:17:20;;;;;;;6.93;4.90;;;17.60;99.90;;;;;;5021417;28;20495;-70
2021/08/12 00:20:08;;;;;;;9.50;4.67;;;17.60;99.90;;;;;;5001376;28;20492;-71
2021/08/12 00:22:54;;;;;;;7.80;4.20;;;17.70;99.90;;;;;;5011574;28;21002;-70
2021/08/12 00:25:39;;;;;;;4.53;3.27;;;17.70;99.90;;;;;;5016598;28;20511;-71
2021/08/12 00:28:25;;;;;;;8.90;4.40;;;17.70;99.90;;;;;;5016410;28;20538;-70
2021/08/12 00:31:10;;;;;;;6.07;4.23;;;17.70;99.90;;;;;;5004364;28;20468;-71
2021/08/12 00:33:56;;;;;;;10.30;4.80;;;17.70;99.90;;;;;;5011697;28;20805;-70
2021/08/12 00:36:43;;;;;;;6.70;3.97;;;17.70;99.90;;;;;;5009805;28;20588;-70
2021/08/12 00:39:29;;;;;;;7.10;4.80;;;17.60;99.90;;;;;;5007927;28;20449;-70
2021/08/12 00:42:15;;;;;;;8.50;5.50;;;17.60;99.90;;;;;;5008689;28;21041;-70
2021/08/12 00:45:00;;;;;;;14.43;8.03;;;17.50;99.90;;;;;;5008048;28;20465;-71
2021/08/12 00:47:46;;;;;;;10.87;7.53;;;17.40;99.90;;;;;;5019264;28;20412;-70
2021/08/12 00:50:32;;;;;;;10.20;6.30;;;17.30;99.90;;;;;;5017463;28;20584;-70
2021/08/12 00:53:20;;;;;;;5.77;4.57;;;17.30;99.90;;;;;;5015521;28;20446;-70
2021/08/12 00:56:08;;;;;;;5.60;4.30;;;17.20;99.90;;;;;;5009543;28;20425;-70
2021/08/12 00:58:54;;;;;;;5.30;4.30;;;17.20;99.90;;;;;;5018092;28;21167;-70
2021/08/12 01:01:40;;;;;;;7.90;5.10;;;17.20;99.90;;;;;;5024447;28;20548;-70
2021/08/12 01:04:25;;;;;;;8.30;4.20;;;17.20;99.90;;;;;;5014883;28;20513;-70
2021/08/12 01:07:14;;;;;;;6.73;4.67;;;17.20;99.90;;;;;;5018212;28;20468;-70
2021/08/12 01:10:08;;;;;;;7.27;5.10;;;17.00;99.90;;;;;;5009865;28;20437;-70
2021/08/12 01:13:00;;;;;;;9.40;5.10;;;17.10;99.90;;;;;;5013597;28;20423;-70
2021/08/12 01:15:50;;;;;;;7.67;4.40;;;17.10;99.90;;;;;;5014812;28;20427;-70
2021/08/12 01:18:43;;;;;;;9.10;4.10;;;17.00;99.90;;;;;;5019981;28;20413;-70
2021/08/12 01:21:47;;;;;;;6.13;4.30;;;17.00;99.90;;;;;;5009853;28;20450;-70
2021/08/12 01:24:37;;;;;;;7.83;4.20;;;17.00;99.90;;;;;;5016055;28;20956;-70
2021/08/12 01:27:27;;;;;;;6.10;3.77;;;17.00;99.90;;;;;;5021959;28;20442;-71
2021/08/12 01:30:18;;;;;;;7.10;4.53;;;17.10;99.90;;;;;;5017890;28;20484;-71
2021/08/12 01:33:12;;;;;;;8.63;4.00;;;17.00;99.90;;;;;;5019983;28;20492;-70
2021/08/12 01:36:02;;;;;;;6.90;4.87;;;17.00;99.90;;;;;;5021166;28;20569;-70
2021/08/12 01:38:50;;;;;;;6.10;3.90;;;16.90;99.90;;;;;;5027967;28;20568;-70
2021/08/12 01:41:37;;;;;;;9.13;4.40;;;16.90;99.90;;;;;;5010373;28;20448;-70
2021/08/12 01:44:25;;;;;;;6.57;4.83;;;16.90;99.90;;;;;;5016306;28;20458;-70
2021/08/12 01:47:11;;;;;;;6.70;4.20;;;16.90;99.90;;;;;;5022928;28;20461;-70
2021/08/12 01:49:57;;;;;;;8.70;4.43;;;16.90;99.90;;;;;;5010287;28;20469;-70
2021/08/12 01:52:48;;;;;;;9.80;4.33;;;16.80;99.90;;;;;;5020740;28;20456;-70
2021/08/12 01:55:34;;;;;;;10.03;4.43;;;16.80;99.90;;;;;;5020698;28;20457;-70
2021/08/12 01:58:24;;;;;;;7.03;4.60;;;16.80;99.90;;;;;;5017550;28;20541;-70
2021/08/12 02:01:10;;;;;;;9.60;4.40;;;16.60;99.90;;;;;;5012832;28;20690;-70
2021/08/12 02:03:57;;;;;;;10.20;5.13;;;16.60;99.90;;;;;;5011989;28;20450;-70
2021/08/12 02:06:43;;;;;;;6.10;4.50;;;16.60;99.90;;;;;;5020370;28;20452;-70
2021/08/12 02:09:30;;;;;;;8.63;4.20;;;16.60;99.90;;;;;;5015827;28;20983;-70
2021/08/12 02:12:16;;;;;;;10.47;4.43;;;16.50;99.90;;;;;;5013079;28;20548;-70
2021/08/12 02:15:01;;;;;;;10.10;4.83;;;16.50;99.90;;;;;;5007625;28;20480;-70
2021/08/12 02:17:47;;;;;;;6.30;4.37;;;16.50;99.90;;;;;;5021996;28;20958;-70
2021/08/12 02:20:33;;;;;;;12.27;4.50;;;16.60;99.90;;;;;;5014405;28;20478;-70
2021/08/12 02:23:24;;;;;;;6.10;4.67;;;16.50;99.90;;;;;;5020319;28;20432;-70
2021/08/12 02:26:15;;;;;;;7.13;4.07;;;16.60;99.90;;;;;;5019022;28;20810;-70
2021/08/12 02:29:02;;;;;;;7.83;4.10;;;16.60;99.90;;;;;;5019967;28;20902;-70
2021/08/12 02:31:49;;;;;;;6.13;3.80;;;16.70;99.90;;;;;;5018360;28;20436;-70
2021/08/12 02:34:37;;;;;;;6.43;4.13;;;16.60;99.90;;;;;;5020323;28;20939;-71
2021/08/12 02:37:24;;;;;;;5.93;3.50;;;16.60;99.90;;;;;;5020256;28;20438;-70
2021/08/12 02:40:11;;;;;;;5.43;4.13;;;16.50;99.90;;;;;;5015752;28;20444;-70
2021/08/12 02:42:58;;;;;;;6.67;4.27;;;16.50;99.90;;;;;;5015924;28;20427;-70
2021/08/12 02:45:46;;;;;;;5.97;4.03;;;16.40;99.90;;;;;;5012853;28;20503;-70
2021/08/12 02:48:33;;;;;;;11.17;4.43;;;16.40;99.90;;;;;;5015329;28;20439;-70
2021/08/12 02:51:20;;;;;;;5.50;4.20;;;16.40;99.90;;;;;;5012766;28;20418;-70
2021/08/12 02:54:06;;;;;;;6.43;4.70;;;16.30;99.90;;;;;;5015563;28;20433;-70
2021/08/12 02:56:52;;;;;;;6.63;3.90;;;16.30;99.90;;;;;;5019065;28;20980;-70
2021/08/12 02:59:41;;;;;;;6.87;3.67;;;16.40;99.90;;;;;;5024251;28;20625;-70
2021/08/12 03:02:29;;;;;;;6.40;4.57;;;16.40;99.90;;;;;;5014493;28;20518;-70
2021/08/12 03:05:15;;;;;;;7.33;4.47;;;16.50;99.90;;;;;;5020326;28;20893;-70
2021/08/12 03:08:02;;;;;;;9.30;4.10;;;16.60;99.90;;;;;;5023787;28;20435;-70
2021/08/12 03:10:48;;;;;;;5.80;4.70;;;16.50;99.90;;;;;;5014406;28;20445;-70
2021/08/12 03:13:35;;;;;;;7.63;4.33;;;16.50;99.90;;;;;;5009517;28;20570;-70
2021/08/12 03:16:23;;;;;;;6.13;4.73;;;16.50;99.90;;;;;;5017562;28;20414;-71
2021/08/12 03:19:09;;;;;;;6.57;4.50;;;16.50;99.90;;;;;;5014388;28;20527;-70
2021/08/12 03:22:05;;;;;;;5.50;3.97;;;16.50;99.90;;;;;;5017514;28;20822;-70
2021/08/12 03:24:53;;;;;;;4.87;3.80;;;16.40;99.90;;;;;;5016401;28;20451;-71
2021/08/12 03:27:39;;;;;;;7.10;4.33;;;16.40;99.90;;;;;;5019419;28;20449;-70
2021/08/12 03:30:25;;;;;;;11.93;5.50;;;16.40;99.90;;;;;;5018459;28;21141;-70
2021/08/12 03:33:11;;;;;;;7.20;4.33;;;16.40;99.90;;;;;;5016568;28;20509;-70
2021/08/12 03:35:57;;;;;;;5.83;4.23;;;16.40;99.90;;;;;;4991548;28;20508;-70
2021/08/12 03:38:43;;;;;;;9.13;4.53;;;16.40;99.90;;;;;;5015766;28;20449;-70
2021/08/12 03:41:29;;;;;;;12.87;4.13;;;16.30;99.90;;;;;;5003290;28;21027;-70
2021/08/12 03:44:14;;;;;;;6.60;4.87;;;16.20;99.90;;;;;;5019380;28;20537;-70
2021/08/12 03:47:00;;;;;;;12.23;4.20;;;16.10;99.90;;;;;;5015917;28;20518;-70
2021/08/12 03:52:14;;;;;;;9.83;3.50;;;16.00;99.90;;;;;;5077740;22;20502;-72
2021/08/12 03:54:59;;;;;;;4.23;3.57;;;16.00;99.90;;;;;;5032815;28;21077;-72
2021/08/12 03:57:45;;;;;;;6.63;4.60;;;16.00;99.90;;;;;;5038696;28;20658;-72
2021/08/12 04:00:31;;;;;;;7.40;4.53;;;16.00;99.90;;;;;;5033561;28;20498;-72
2021/08/12 04:03:17;;;;;;;6.50;4.00;;;16.00;99.90;;;;;;5041787;28;20490;-72
2021/08/12 04:06:03;;;;;;;9.77;3.67;;;16.00;99.90;;;;;;5033371;28;20468;-72
2021/08/12 04:08:50;;;;;;;6.10;3.73;;;16.00;99.90;;;;;;5032212;28;20492;-72
2021/08/12 04:11:36;;;;;;;11.93;4.50;;;16.00;99.90;;;;;;5028738;28;21163;-72
2021/08/12 04:14:21;;;;;;;5.30;3.70;;;16.00;99.90;;;;;;5046794;28;20406;-72
2021/08/12 04:17:06;;;;;;;9.00;4.30;;;16.00;99.90;;;;;;5020884;28;20526;-72
2021/08/12 04:19:52;;;;;;;7.23;4.30;;;16.00;99.90;;;;;;5041060;28;20473;-72
2021/08/12 04:22:38;;;;;;;7.43;4.57;;;15.90;99.90;;;;;;5026475;28;20991;-72
2021/08/12 04:25:25;;;;;;;6.50;4.70;;;15.90;99.90;;;;;;5046409;28;20462;-72
2021/08/12 04:28:10;;;;;;;6.83;4.90;;;15.90;99.90;;;;;;5032187;28;20462;-72
2021/08/12 04:30:56;;;;;;;7.03;4.50;;;16.00;99.90;;;;;;5022290;28;20465;-72
2021/08/12 04:33:41;;;;;;;10.90;5.07;;;15.90;99.90;;;;;;5034589;28;20454;-72
2021/08/12 04:36:27;;;;;;;5.33;3.70;;;15.90;99.90;;;;;;5047125;28;20416;-72
2021/08/12 04:39:12;;;;;;;6.23;4.03;;;15.90;99.90;;;;;;5042392;28;20937;-72
2021/08/12 04:42:00;;;;;;;11.53;4.77;;;15.90;99.90;;;;;;5028662;28;20820;-72
2021/08/12 04:44:45;;;;;;;6.40;3.97;;;16.00;99.90;;;;;;5040698;28;20937;-72
2021/08/12 04:47:31;;;;;;;9.03;4.30;;;16.00;99.90;;;;;;5031300;28;20448;-72
2021/08/12 04:50:17;;;;;;;11.83;6.37;;;16.00;99.90;;;;;;5047047;28;20601;-72
2021/08/12 04:53:02;;;;;;;8.70;4.30;;;16.10;99.90;;;;;;5033993;28;20441;-72
2021/08/12 04:55:48;;;;;;;7.30;4.90;;;16.20;99.90;;;;;;5041581;28;20809;-72
2021/08/12 04:58:35;;;;;;;6.43;4.40;;;16.30;99.90;;;;;;5043582;28;20590;-72
2021/08/12 05:01:21;;;;;;;9.23;4.43;;;16.20;99.90;;;;;;5039072;28;21001;-72
2021/08/12 05:04:06;;;;;;;10.43;5.03;;;16.30;99.90;;;;;;5041855;28;20546;-72
2021/08/12 05:06:52;;;;;;;5.70;4.07;;;16.40;99.90;;;;;;5041190;28;20502;-72
2021/08/12 05:09:38;;;;;;;7.00;4.00;;;16.60;99.90;;;;;;5047949;28;20439;-72
2021/08/12 05:12:23;;;;;;;5.87;4.07;;;16.70;99.90;;;;;;5033789;28;20611;-72
2021/08/12 05:15:11;;;;;;;6.00;4.03;;;16.80;99.90;;;;;;5033619;28;20472;-72
2021/08/12 05:17:57;;;;;;;14.37;4.50;;;16.80;99.90;;;;;;5031978;28;21005;-72
2021/08/12 05:20:42;;;;;;;12.10;4.60;;;17.00;99.90;;;;;;5043769;28;20452;-72
2021/08/12 05:23:28;;;;;;;6.90;4.30;;;17.10;99.90;;;;;;5038281;28;20990;-72
2021/08/12 05:26:14;;;;;;;6.80;5.00;;;17.10;99.90;;;;;;5048375;28;20465;-72
2021/08/12 05:28:59;;;;;;;15.10;5.70;;;17.10;99.90;;;;;;5032731;28;20436;-72
2021/08/12 05:31:46;;;;;;;11.93;5.63;;;17.20;99.90;;;;;;5044810;28;20523;-72
2021/08/12 05:34:32;;;;;;;8.50;5.13;;;17.30;99.90;;;;;;5046629;28;20491;-72
2021/08/12 05:37:17;;;;;;;8.10;4.67;;;17.40;99.90;;;;;;5040357;28;20507;-72
2021/08/12 05:40:04;;;;;;;10.10;7.03;;;17.60;99.90;;;;;;5042428;28;21104;-72
2021/08/12 05:42:50;;;;;;;8.43;6.67;;;17.60;99.90;;;;;;5038631;28;20471;-72
2021/08/12 05:45:36;;;;;;;8.20;5.00;;;17.70;99.90;;;;;;5030126;28;20413;-72
2021/08/12 05:48:23;;;;;;;13.90;5.43;;;17.80;99.90;;;;;;5045083;28;20522;-72
2021/08/12 05:51:09;;;;;;;9.00;5.00;;;17.90;99.90;;;;;;5041759;28;20448;-72
2021/08/12 05:53:55;;;;;;;8.07;4.63;;;17.90;99.90;;;;;;5027258;28;20448;-72
2021/08/12 05:56:41;;;;;;;9.00;4.60;;;18.00;99.90;;;;;;5046059;28;20828;-72
2021/08/12 05:59:27;;;;;;;5.80;4.00;;;18.00;99.90;;;;;;5037475;28;20508;-72
2021/08/12 06:02:13;;;;;;;5.03;4.07;;;18.10;99.90;;;;;;5037008;28;20593;-72
2021/08/12 06:05:00;;;;;;;5.90;4.50;;;18.10;99.90;;;;;;5014353;28;20513;-72
2021/08/12 06:07:45;;;;;;;7.80;5.67;;;18.10;99.90;;;;;;5028137;28;20411;-72
2021/08/12 06:10:32;;;;;;;9.67;4.87;;;18.20;99.90;;;;;;5038490;28;20453;-72
2021/08/12 06:13:18;;;;;;;9.40;5.40;;;18.20;99.90;;;;;;5040591;28;21308;-72
2021/08/12 06:16:06;;;;;;;7.50;5.27;;;18.30;99.90;;;;;;5047960;28;20526;-72
2021/08/12 06:18:52;;;;;;;5.93;4.90;;;18.30;99.90;;;;;;5036362;28;20947;-72
2021/08/12 06:21:39;;;;;;;6.40;4.70;;;18.40;99.90;;;;;;5048642;28;20593;-72
2021/08/12 06:24:25;;;;;;;6.47;4.30;;;18.60;99.90;;;;;;5034302;28;20442;-72
2021/08/12 06:27:11;;;;;;;9.07;5.83;;;18.70;99.90;;;;;;5037565;28;20957;-72
2021/08/12 06:29:56;;;;;;;8.07;4.90;;;18.80;99.90;;;;;;5021871;28;20441;-72
2021/08/12 06:32:42;;;;;;;7.40;4.70;;;18.90;99.90;;;;;;5034135;28;20454;-72
2021/08/12 06:35:31;;;;;;;13.70;5.13;;;18.90;99.90;;;;;;5037028;28;21216;-72
2021/08/12 06:38:18;;;;;;;5.97;4.80;;;18.80;99.90;;;;;;5042989;28;20416;-72
2021/08/12 06:41:04;;;;;;;10.37;4.80;;;18.80;99.90;;;;;;5040756;28;20543;-72
2021/08/12 06:43:49;;;;;;;9.50;5.00;;;18.90;99.90;;;;;;5035619;28;20517;-72
2021/08/12 06:46:35;;;;;;;7.53;5.47;;;19.00;99.90;;;;;;5042653;28;21080;-72
2021/08/12 06:49:21;;;;;;;7.87;4.50;;;19.10;99.90;;;;;;5052208;28;20572;-72
2021/08/12 06:52:07;;;;;;;8.60;4.80;;;19.20;99.90;;;;;;5043356;28;21057;-72
2021/08/12 06:54:54;;;;;;;13.23;4.90;;;19.30;99.90;;;;;;5030152;28;20454;-73
2021/08/12 06:57:40;;;;;;;12.07;4.30;;;19.30;99.90;;;;;;5034132;28;20501;-72
2021/08/12 07:00:26;;;;;;;6.03;4.40;;;19.40;99.90;;;;;;5045818;28;20993;-72
2021/08/12 07:03:11;;;;;;;8.63;5.00;;;19.40;99.90;;;;;;5039011;28;20800;-72
2021/08/12 07:05:57;;;;;;;9.43;5.40;;;19.50;99.90;;;;;;5032869;28;20444;-72
2021/08/12 07:08:43;;;;;;;13.57;5.37;;;19.60;99.90;;;;;;5050348;28;20492;-72
2021/08/12 07:11:30;;;;;;;6.87;4.73;;;19.60;99.90;;;;;;5032377;28;20511;-72
2021/08/12 07:14:15;;;;;;;9.77;5.47;;;19.70;99.90;;;;;;5041479;28;20458;-72
2021/08/12 07:17:01;;;;;;;6.13;4.67;;;19.80;99.90;;;;;;5039101;28;20441;-72
2021/08/12 07:19:47;;;;;;;6.57;5.30;;;19.80;99.90;;;;;;5040283;28;20514;-72
2021/08/12 07:22:32;;;;;;;9.40;4.87;;;19.90;99.90;;;;;;5038109;28;20488;-72
2021/08/12 07:25:20;;;;;;;8.57;5.10;;;20.00;99.90;;;;;;5044279;28;20464;-72
2021/08/12 07:28:11;;;;;;;10.40;6.03;;;20.10;99.90;;;;;;5037828;28;20451;-72
2021/08/12 07:30:56;;;;;;;9.10;5.27;;;20.30;99.90;;;;;;5033607;28;20580;-72
2021/08/12 07:33:42;;;;;;;11.80;5.20;;;20.50;99.90;;;;;;5047373;28;20430;-72
2021/08/12 07:36:28;;;;;;;12.30;6.00;;;20.60;99.90;;;;;;5046321;28;20427;-73
2021/08/12 07:39:15;;;;;;;7.90;5.33;;;20.70;99.90;;;;;;5043011;28;20593;-72
2021/08/12 07:42:01;;;;;;;7.57;4.57;;;20.90;99.90;;;;;;5036265;28;20994;-72
2021/08/12 07:44:48;;;;;;;10.00;5.00;;;21.00;99.90;;;;;;5040872;28;21140;-72
2021/08/12 07:47:34;;;;;;;8.50;4.97;;;21.10;99.90;;;;;;5049190;28;21090;-72
2021/08/12 07:50:20;;;;;;;9.17;5.30;;;21.20;99.90;;;;;;5029176;28;20473;-73
2021/08/12 07:53:05;;;;;;;10.00;5.27;;;21.40;99.90;;;;;;5041543;28;20426;-73
2021/08/12 07:55:51;;;;;;;8.97;4.77;;;21.50;99.90;;;;;;5050607;28;20392;-72
2021/08/12 07:58:37;;;;;;;10.87;4.40;;;21.70;99.90;;;;;;5031296;28;20521;-73
2021/08/12 08:01:24;;;;;;;13.57;5.23;;;21.80;99.90;;;;;;5032682;28;20491;-72
2021/08/12 08:04:09;;;;;;;7.80;4.37;;;21.90;99.90;;;;;;5025008;28;20539;-73
2021/08/12 08:06:55;;;;;;;8.87;4.67;;;21.90;99.90;;;;;;5031762;28;20812;-73
2021/08/12 08:09:41;;;;;;;7.27;4.53;;;22.00;99.90;;;;;;5039144;28;20441;-73
2021/08/12 08:12:27;;;;;;;11.13;5.30;;;22.10;99.90;;;;;;5033348;28;20969;-72
2021/08/12 08:15:14;;;;;;;9.70;5.20;;;22.20;99.90;;;;;;5045113;28;20811;-73
2021/08/12 08:18:01;;;;;;;9.40;5.43;;;22.30;99.90;;;;;;5035285;28;20452;-73
2021/08/12 08:20:46;;;;;;;6.77;4.93;;;22.30;99.90;;;;;;5044670;28;21376;-73
2021/08/12 08:23:32;;;;;;;7.50;5.50;;;22.50;99.90;;;;;;5040466;28;20495;-73
2021/08/12 08:26:18;;;;;;;6.77;4.33;;;22.50;99.90;;;;;;5034162;28;20459;-73
2021/08/12 08:29:04;;;;;;;14.60;5.97;;;22.50;99.90;;;;;;5054849;28;20446;-73
2021/08/12 08:31:49;;;;;;;6.77;5.13;;;22.60;99.90;;;;;;5043117;28;20477;-73
2021/08/12 08:34:36;;;;;;;9.13;5.03;;;22.70;99.90;;;;;;5048741;28;20436;-72
2021/08/12 08:37:23;;;;;;;10.47;4.90;;;22.90;99.90;;;;;;5052537;28;20453;-72
2021/08/12 08:40:10;;;;;;;8.60;5.60;;;23.00;99.90;;;;;;5034844;28;20524;-73
2021/08/12 08:42:55;;;;;;;6.03;4.60;;;23.10;99.90;;;;;;5036957;28;20478;-73
2021/08/12 08:45:45;;;;;;;7.70;5.33;;;23.20;99.90;;;;;;5045827;28;20419;-73
2021/08/12 08:48:34;;;;;;;7.33;4.80;;;23.30;99.90;;;;;;5050908;28;20430;-73
2021/08/12 08:51:21;;;;;;;9.00;4.63;;;23.40;99.90;;;;;;5041619;28;20482;-73
2021/08/12 08:54:07;;;;;;;7.13;5.03;;;23.50;99.90;;;;;;5043976;28;20541;-73
2021/08/12 08:56:53;;;;;;;14.27;5.80;;;23.50;99.90;;;;;;5048653;28;20435;-73
2021/08/12 08:59:39;;;;;;;14.60;5.53;;;23.50;99.90;;;;;;5034745;28;20923;-73
2021/08/12 09:02:25;;;;;;;7.57;4.77;;;23.60;99.90;;;;;;5027871;28;21093;-73
2021/08/12 09:05:11;;;;;;;9.10;5.10;;;23.80;99.90;;;;;;5038080;28;20415;-73
2021/08/12 09:08:00;;;;;;;10.30;5.17;;;23.90;99.90;;;;;;5021601;28;20527;-73
2021/08/12 09:10:46;;;;;;;9.07;5.63;;;24.00;99.90;;;;;;5027356;28;20444;-75
2021/08/12 09:13:32;;;;;;;9.53;4.90;;;24.10;99.90;;;;;;5037777;28;20515;-75
2021/08/12 09:16:30;;;;;;;6.97;5.33;;;24.30;99.90;;;;;;5018308;28;20439;-75
2021/08/12 09:19:21;;;;;;;11.00;4.83;;;24.40;99.90;;;;;;5033254;28;21018;-74
2021/08/12 09:22:06;;;;;;;8.30;5.27;;;24.50;99.90;;;;;;5037105;28;20476;-75
2021/08/12 09:24:54;;;;;;;6.83;4.93;;;24.60;99.90;;;;;;5028957;28;20941;-75
2021/08/12 09:27:39;;;;;;;7.57;5.40;;;24.60;99.90;;;;;;5028173;28;20492;-73
2021/08/12 09:30:26;;;;;;;6.97;4.63;;;24.80;99.90;;;;;;5032570;28;20452;-75
2021/08/12 09:33:17;;;;;;;6.90;4.73;;;24.90;99.90;;;;;;5032799;28;20437;-74
2021/08/12 09:36:04;;;;;;;9.13;5.20;;;25.00;99.90;;;;;;5032438;28;20437;-75
2021/08/12 09:39:05;;;;;;;7.30;5.73;;;25.00;99.90;;;;;;5032642;28;20431;-74
2021/08/12 09:41:54;;;;;;;8.10;5.53;;;25.10;99.90;;;;;;5044210;28;20526;-75
2021/08/12 09:44:42;;;;;;;6.33;4.87;;;25.20;99.90;;;;;;5022174;28;20420;-73
2021/08/12 09:47:29;;;;;;;15.13;6.63;;;25.20;99.90;;;;;;5033047;28;20889;-74
2021/08/12 09:50:24;;;;;;;14.10;6.13;;;25.20;99.90;;;;;;5033067;28;21088;-75
2021/08/12 09:53:18;;;;;;;9.63;6.03;;;25.20;99.90;;;;;;5032333;22;20488;-74
2021/08/12 09:56:08;;;;;;;7.43;5.57;;;25.30;99.90;;;;;;5032689;28;20426;-75
2021/08/12 09:59:06;;;;;;;7.10;5.53;;;25.40;99.90;;;;;;5032277;28;20425;-75
2021/08/12 10:02:12;;;;;;;11.00;5.07;;;25.30;99.90;;;;;;5032722;28;20493;-74
2021/08/12 10:05:07;;;;;;;8.70;5.23;;;25.30;99.90;;;;;;5040633;28;20422;-75
2021/08/12 10:07:54;;;;;;;13.70;5.83;;;25.30;99.90;;;;;;5031306;28;20485;-74
2021/08/12 10:10:40;;;;;;;10.07;6.57;;;25.20;99.90;;;;;;5032596;28;20450;-75
2021/08/12 10:13:26;;;;;;;13.53;5.37;;;25.30;99.90;;;;;;5035712;28;20450;-75
2021/08/12 10:16:15;;;;;;;9.70;5.20;;;25.40;99.90;;;;;;5031899;28;20516;-74
2021/08/12 10:19:03;;;;;;;8.20;4.93;;;25.60;99.90;;;;;;5032238;28;20802;-73
2021/08/12 10:21:49;;;;;;;16.17;5.83;;;25.70;96.90;;;;;;5031133;28;20480;-74
2021/08/12 10:24:35;;;;;;;5.83;5.20;;;25.80;96.90;;;;;;5031595;28;20494;-74
2021/08/12 10:27:21;;;;;;;19.50;5.50;;;25.80;96.40;;;;;;5028593;28;20883;-75
2021/08/12 10:30:08;;;;;;;10.73;5.80;;;25.80;97.40;;;;;;5030130;28;20518;-75
2021/08/12 10:32:56;;;;;;;6.37;5.43;;;25.80;92.70;;;;;;5017375;28;20507;-75
2021/08/12 10:35:42;;;;;;;8.30;5.10;;;25.90;93.10;;;;;;5031403;28;20448;-74
2021/08/12 10:38:28;;;;;;;10.50;5.87;;;25.90;94.10;;;;;;5031514;28;20466;-75
2021/08/12 10:41:16;;;;;;;20.77;6.67;;;25.90;94.30;;;;;;5039568;28;20441;-74
2021/08/12 10:44:01;;;;;;;9.00;5.57;;;25.90;95.80;;;;;;5031505;28;20627;-74
2021/08/12 10:46:47;;;;;;;11.50;7.00;;;26.00;95.10;;;;;;5028852;28;20456;-74
2021/08/12 10:49:35;;;;;;;12.80;5.53;;;26.10;96.20;;;;;;5031588;28;21120;-75
2021/08/12 10:52:23;;;;;;;8.43;5.27;;;26.10;89.50;;;;;;5040843;28;20456;-75
2021/08/12 10:55:18;;;;;;;7.70;5.43;;;26.20;83.90;;;;;;5025592;28;20501;-74
2021/08/12 10:58:35;;;;;;;8.83;5.73;;;26.30;85.40;;;;;;5030744;28;20470;-74
2021/08/12 11:01:29;;;;;;;8.30;5.50;;;26.50;86.50;;;;;;5028825;28;20440;-75
2021/08/12 11:04:15;;;;;;;6.93;5.70;;;26.50;83.70;;;;;;5034085;28;20473;-75
2021/08/12 11:07:02;;;;;;;8.63;6.40;;;26.60;87.00;;;;;;5031842;28;20439;-75
2021/08/12 11:09:56;;;;;;;7.17;5.93;;;26.60;78.40;;;;;;5032614;28;20452;-75
2021/08/12 11:13:01;;;;;;;9.50;7.03;;;26.60;67.90;;;;;;5030436;28;20836;-74
2021/08/12 11:16:00;;;;;;;9.03;6.13;;;26.60;70.40;;;;;;5021358;28;20433;-75
2021/08/12 11:18:47;;;;;;;11.30;5.97;;;26.60;76.20;;;;;;5031177;28;20439;-75
2021/08/12 11:21:41;;;;;;;7.83;5.70;;;26.60;77.20;;;;;;5031130;28;20448;-73
2021/08/12 11:24:50;;;;;;;9.33;6.07;;;26.50;74.50;;;;;;5027506;28;20489;-75
2021/08/12 11:27:44;;;;;;;8.70;6.10;;;26.40;73.50;;;;;;5021731;28;20572;-75
2021/08/12 11:30:51;;;;;;;8.17;5.93;;;26.40;72.90;;;;;;5030890;28;20797;-75
2021/08/12 11:33:47;;;;;;;8.97;5.70;;;26.50;73.10;;;;;;5027611;28;20919;-73
2021/08/12 11:36:34;;;;;;;8.70;5.57;;;26.50;73.90;;;;;;5021022;28;20427;-72
2021/08/12 11:39:21;;;;;;;9.13;5.33;;;26.50;73.80;;;;;;5039213;28;20450;-74
2021/08/12 11:42:21;;;;;;;10.73;6.67;;;26.60;79.40;;;;;;5036722;28;20536;-75
2021/08/12 11:45:09;;;;;;;9.90;6.27;;;26.80;85.00;;;;;;5030598;28;20542;-75
2021/08/12 11:47:56;;;;;;;6.50;5.30;;;26.90;85.10;;;;;;5030960;28;20431;-75
2021/08/12 11:50:42;;;;;;;7.67;5.40;;;27.10;80.50;;;;;;5025638;28;20438;-75
2021/08/12 11:53:45;;;;;;;6.60;5.27;;;27.20;74.80;;;;;;5017985;28;20454;-74
2021/08/12 11:56:35;;;;;;;10.47;5.90;;;27.20;72.80;;;;;;5030210;28;20495;-75
2021/08/12 11:59:26;;;;;;;6.93;6.07;;;27.20;73.00;;;;;;5030840;28;20489;-73
2021/08/12 12:02:12;;;;;;;9.47;5.47;;;27.10;71.00;;;;;;5028407;28;20452;-74
2021/08/12 12:04:57;;;;;;;10.30;5.50;;;27.10;73.60;;;;;;5015985;28;20473;-76
2021/08/12 12:07:44;;;;;;;8.10;6.10;;;27.20;72.10;;;;;;5026194;28;20531;-79
2021/08/12 12:10:32;;;;;;;7.50;5.63;;;27.30;73.50;;;;;;5024324;28;20421;-76
2021/08/12 12:13:20;;;;;;;16.73;6.03;;;27.50;76.90;;;;;;5029130;28;20988;-76
2021/08/12 12:16:11;;;;;;;9.17;6.33;;;27.50;75.40;;;;;;5027138;28;20813;-76
2021/08/12 12:18:57;;;;;;;7.77;6.33;;;27.60;72.50;;;;;;5016134;28;20489;-76
2021/08/12 12:21:43;;;;;;;10.87;6.83;;;27.50;71.10;;;;;;5024752;28;20453;-76
2021/08/12 12:24:29;;;;;;;11.57;6.67;;;27.50;69.90;;;;;;5021153;28;20479;-75
2021/08/12 12:27:19;;;;;;;9.43;6.33;;;27.50;70.30;;;;;;5030506;28;20506;-75
2021/08/12 12:30:08;;;;;;;9.23;6.27;;;27.50;68.70;;;;;;5032708;28;20434;-76
2021/08/12 12:33:01;;;;;;;6.90;5.60;;;27.80;71.70;;;;;;5018605;28;20614;-76
2021/08/12 12:35:49;;;;;;;11.30;6.57;;;27.80;66.50;;;;;;5029296;28;20715;-75
2021/08/12 12:38:35;;;;;;;12.60;6.20;;;27.90;66.70;;;;;;5029801;28;20799;-77
2021/08/12 12:41:23;;;;;;;9.90;6.30;;;28.00;66.60;;;;;;5031298;28;20479;-75
2021/08/12 12:44:11;;;;;;;77.27;17.87;;;28.00;67.10;;;;;;5026234;28;20482;-76
2021/08/12 12:46:57;;;;;;;11.13;6.97;;;28.00;64.90;;;;;;5025389;28;20432;-76
2021/08/12 12:49:44;;;;;;;12.67;8.53;;;27.90;63.60;;;;;;5030417;28;20860;-76
2021/08/12 12:52:29;;;;;;;11.63;7.37;;;27.80;66.90;;;;;;5028681;28;20502;-76
2021/08/12 12:55:19;;;;;;;10.17;6.30;;;27.60;72.30;;;;;;5022133;28;20479;-76
2021/08/12 12:58:19;;;;;;;15.20;7.40;;;27.50;70.50;;;;;;5029805;28;20430;-76
2021/08/12 13:01:07;;;;;;;12.80;6.70;;;27.50;80.90;;;;;;5028485;28;20477;-76
2021/08/12 13:03:57;;;;;;;11.73;6.03;;;27.50;77.60;;;;;;5026640;28;20476;-76
2021/08/12 13:06:45;;;;;;;8.10;6.20;;;27.60;73.20;;;;;;5020578;28;20583;-76
2021/08/12 13:09:32;;;;;;;6.83;6.13;;;27.70;70.70;;;;;;5031232;28;20431;-76
2021/08/12 13:12:28;;;;;;;8.70;5.77;;;27.80;77.50;;;;;;5042909;28;20450;-77
2021/08/12 13:15:15;;;;;;;9.30;6.00;;;27.90;76.50;;;;;;5023617;28;20498;-75
2021/08/12 13:18:03;;;;;;;7.27;5.63;;;28.00;69.90;;;;;;5034086;28;20435;-76
2021/08/12 13:20:48;;;;;;;9.20;6.50;;;28.10;65.50;;;;;;5023999;28;20533;-76
2021/08/12 13:23:50;;;;;;;10.00;6.53;;;28.20;66.40;;;;;;5033809;28;20480;-76
2021/08/12 13:26:38;;;;;;;18.33;5.77;;;28.40;64.20;;;;;;5030060;28;20439;-76
2021/08/12 13:29:27;;;;;;;16.47;7.63;;;28.50;65.20;;;;;;5031534;28;20449;-76
2021/08/12 13:32:15;;;;;;;9.83;6.90;;;28.60;63.50;;;;;;5033341;28;20447;-73
2021/08/12 13:35:01;;;;;;;7.90;6.10;;;28.80;61.30;;;;;;5033306;28;20796;-76
2021/08/12 13:37:47;;;;;;;13.43;6.07;;;29.00;63.00;;;;;;5029890;28;20432;-77
2021/08/12 13:40:34;;;;;;;8.33;6.00;;;29.00;54.50;;;;;;5026882;28;20425;-75
2021/08/12 13:43:20;;;;;;;8.27;6.10;;;29.20;56.70;;;;;;5030855;28;21097;-76
2021/08/12 13:46:06;;;;;;;9.40;5.60;;;29.50;54.20;;;;;;5033284;28;20430;-76
2021/08/12 13:48:51;;;;;;;7.27;5.20;;;29.70;52.80;;;;;;5025101;28;20911;-77
2021/08/12 13:51:37;;;;;;;8.53;6.73;;;30.00;50.10;;;;;;5033416;28;20792;-75
2021/08/12 13:54:24;;;;;;;7.57;6.33;;;30.20;50.40;;;;;;5033614;28;20800;-75
2021/08/12 13:57:11;;;;;;;6.90;5.90;;;30.40;51.80;;;;;;5029099;28;20813;-76
2021/08/12 13:59:56;;;;;;;8.27;6.33;;;30.30;49.20;;;;;;5029970;28;20487;-76
2021/08/12 14:02:42;;;;;;;10.53;6.30;;;30.20;49.90;;;;;;5027123;28;20836;-77
2021/08/12 14:05:28;;;;;;;9.07;6.20;;;30.30;48.00;;;;;;5031218;28;20853;-75
2021/08/12 14:08:15;;;;;;;9.27;5.87;;;30.20;49.90;;;;;;5019471;28;20506;-75
2021/08/12 14:11:01;;;;;;;7.63;6.07;;;30.00;48.40;;;;;;5033712;28;20425;-77
2021/08/12 14:13:49;;;;;;;7.50;6.00;;;30.00;47.50;;;;;;5033491;28;20541;-76
2021/08/12 14:16:34;;;;;;;7.80;5.80;;;29.80;49.70;;;;;;5035954;28;20827;-75
2021/08/12 14:19:20;;;;;;;7.47;6.03;;;29.90;54.70;;;;;;5038403;28;20470;-76
2021/08/12 14:22:06;;;;;;;6.90;5.60;;;29.90;58.10;;;;;;5034101;28;21028;-76
2021/08/12 14:24:52;;;;;;;8.33;5.90;;;29.90;51.20;;;;;;5032245;28;21020;-75
2021/08/12 14:27:41;;;;;;;9.53;5.80;;;29.90;48.20;;;;;;5032334;28;20495;-75
2021/08/12 14:30:28;;;;;;;8.57;6.17;;;29.90;48.90;;;;;;5029092;28;20452;-76